createdAt,value
2022-09-13T00:00:00.926Z,4.82
2022-09-13T00:03:03.366Z,2.80
2022-09-13T00:06:18.706Z,3.60
2022-09-13T00:09:20.801Z,3.37
2022-09-13T00:12:23.188Z,3.00
2022-09-13T00:15:25.275Z,3.25
2022-09-13T00:18:27.678Z,4.72
2022-09-13T00:21:30.040Z,3.17
2022-09-13T00:24:33.970Z,6.05
2022-09-13T00:27:37.383Z,3.42
2022-09-13T00:30:39.747Z,5.70
2022-09-13T00:33:41.827Z,4.57
2022-09-13T00:36:44.268Z,3.78
2022-09-13T00:39:49.689Z,3.58
2022-09-13T00:42:52.276Z,3.97
2022-09-13T00:45:54.490Z,5.20
2022-09-13T00:49:10.418Z,4.12
2022-09-13T00:52:16.112Z,3.15
2022-09-13T00:55:28.977Z,3.17
2022-09-13T00:58:37.055Z,4.28
2022-09-13T01:01:52.759Z,3.58
2022-09-13T01:04:55.623Z,3.60
2022-09-13T01:07:59.959Z,4.87
2022-09-13T01:11:05.694Z,5.85
2022-09-13T01:14:09.402Z,3.53
2022-09-13T01:17:11.780Z,3.60
2022-09-13T01:20:14.766Z,3.83
2022-09-13T01:23:53.917Z,4.97
2022-09-13T01:27:05.210Z,3.12
2022-09-13T01:33:32.989Z,4.18
2022-09-13T01:36:37.856Z,3.65
2022-09-13T01:39:49.488Z,3.15
2022-09-13T01:43:12.802Z,3.10
2022-09-13T01:46:22.778Z,3.90
2022-09-13T01:49:30.998Z,3.47
2022-09-13T01:52:43.209Z,3.42
2022-09-13T01:55:52.858Z,5.45
2022-09-13T01:59:02.357Z,5.03
2022-09-13T02:02:15.555Z,3.95
2022-09-13T02:05:41.126Z,4.07
2022-09-13T02:08:57.788Z,3.95
2022-09-13T02:12:11.134Z,3.17
2022-09-13T02:15:18.550Z,4.70
2022-09-13T02:18:37.237Z,5.45
2022-09-13T02:21:44.636Z,5.85
2022-09-13T02:24:53.049Z,3.78
2022-09-13T02:28:01.703Z,4.95
2022-09-13T02:31:07.843Z,4.05
2022-09-13T02:34:18.650Z,3.33
2022-09-13T02:37:24.571Z,3.45
2022-09-13T02:40:35.590Z,3.90
2022-09-13T02:43:42.609Z,4.37
2022-09-13T02:47:20.233Z,5.37
2022-09-13T02:50:46.071Z,4.65
2022-09-13T02:53:56.017Z,3.53
2022-09-13T02:57:15.214Z,4.30
2022-09-13T03:00:17.598Z,3.90
2022-09-13T03:03:20.855Z,3.62
2022-09-13T03:06:28.687Z,3.83
2022-09-13T03:09:32.202Z,4.28
2022-09-13T03:13:08.516Z,4.72
2022-09-13T03:16:35.013Z,3.03
2022-09-13T03:19:52.628Z,3.40
2022-09-13T03:23:00.654Z,4.10
2022-09-13T03:26:02.617Z,4.15
2022-09-13T03:29:25.560Z,3.92
2022-09-13T03:32:45.783Z,5.50
2022-09-13T03:35:59.276Z,5.05
2022-09-13T03:39:14.913Z,3.53
2022-09-13T03:42:44.791Z,3.85
2022-09-13T03:45:53.567Z,3.70
2022-09-13T03:48:58.079Z,4.82
2022-09-13T03:52:00.825Z,3.60
2022-09-13T03:55:03.497Z,3.87
2022-09-13T03:58:05.972Z,4.95
2022-09-13T04:01:10.267Z,4.75
2022-09-13T04:04:12.623Z,4.65
2022-09-13T04:07:20.566Z,5.05
2022-09-13T04:10:24.310Z,4.78
2022-09-13T04:13:26.874Z,5.87
2022-09-13T04:16:29.260Z,6.68
2022-09-13T04:19:31.820Z,5.40
2022-09-13T04:22:34.138Z,8.30
2022-09-13T04:25:39.049Z,6.35
2022-09-13T04:28:41.459Z,4.00
2022-09-13T04:31:44.342Z,5.60
2022-09-13T04:34:47.666Z,5.70
2022-09-13T04:37:49.859Z,4.62
2022-09-13T04:40:54.281Z,6.70
2022-09-13T04:43:56.345Z,5.30
2022-09-13T04:46:58.660Z,5.47
2022-09-13T04:50:00.708Z,7.70
2022-09-13T04:53:03.185Z,6.85
2022-09-13T04:56:05.440Z,5.50
2022-09-13T04:59:07.813Z,6.62
2022-09-13T05:02:10.030Z,8.32
2022-09-13T05:05:12.379Z,5.90
2022-09-13T05:08:14.630Z,6.87
2022-09-13T05:11:16.947Z,9.63
2022-09-13T05:14:19.050Z,5.50
2022-09-13T05:17:21.897Z,8.20
2022-09-13T05:20:24.134Z,6.40
2022-09-13T05:23:28.502Z,8.25
2022-09-13T05:26:31.368Z,8.10
2022-09-13T05:29:33.797Z,6.85
2022-09-13T05:32:35.854Z,9.95
2022-09-13T05:35:40.982Z,7.62
2022-09-13T05:38:43.031Z,5.75
2022-09-13T05:41:46.061Z,9.98
2022-09-13T05:44:48.153Z,7.45
2022-09-13T05:47:51.854Z,6.97
2022-09-13T05:50:58.262Z,9.50
2022-09-13T05:54:00.989Z,9.40
2022-09-13T05:57:03.489Z,8.45
2022-09-13T06:00:06.381Z,7.80
2022-09-13T06:03:14.346Z,7.00
2022-09-13T06:06:17.586Z,10.65
2022-09-13T06:09:20.090Z,8.38
2022-09-13T06:12:22.418Z,8.70
2022-09-13T06:15:24.489Z,10.32
2022-09-13T06:18:27.583Z,9.10
2022-09-13T06:21:29.674Z,10.45
2022-09-13T06:24:32.177Z,7.03
2022-09-13T06:27:34.276Z,11.38
2022-09-13T06:30:36.599Z,9.73
2022-09-13T06:33:41.297Z,9.85
2022-09-13T06:36:43.832Z,8.13
2022-09-13T06:39:45.993Z,9.30
2022-09-13T06:42:48.729Z,8.05
2022-09-13T06:45:50.914Z,9.38
2022-09-13T06:48:53.957Z,5.28
2022-09-13T06:51:56.062Z,3.83
2022-09-13T06:54:58.854Z,3.75
2022-09-13T06:58:00.928Z,4.05
2022-09-13T07:01:16.266Z,3.78
2022-09-13T07:04:22.331Z,5.30
2022-09-13T07:07:24.679Z,5.95
2022-09-13T07:10:26.823Z,7.00
2022-09-13T07:13:29.260Z,5.35
2022-09-13T07:16:33.247Z,4.57
2022-09-13T07:19:35.637Z,5.62
2022-09-13T07:22:37.713Z,4.32
2022-09-13T07:25:40.041Z,4.32
2022-09-13T07:28:46.888Z,4.93
2022-09-13T07:31:54.348Z,6.97
2022-09-13T07:34:56.455Z,4.15
2022-09-13T07:37:58.758Z,4.93
2022-09-13T07:41:01.060Z,3.87
2022-09-13T07:44:05.078Z,3.58
2022-09-13T07:47:07.141Z,2.95
2022-09-13T07:50:09.946Z,4.72
2022-09-13T07:53:11.989Z,6.10
2022-09-13T07:56:19.922Z,3.97
2022-09-13T07:59:21.999Z,5.97
2022-09-13T08:02:24.434Z,5.60
2022-09-13T08:05:26.901Z,8.57
2022-09-13T08:08:30.235Z,11.50
2022-09-13T08:11:38.414Z,3.50
2022-09-13T08:14:40.496Z,4.55
2022-09-13T08:17:42.829Z,6.75
2022-09-13T08:20:45.212Z,6.20
2022-09-13T08:23:48.189Z,8.77
2022-09-13T08:26:51.925Z,7.75
2022-09-13T08:29:54.360Z,3.28
2022-09-13T08:32:56.444Z,6.97
2022-09-13T08:35:59.122Z,6.20
2022-09-13T08:39:04.391Z,5.32
2022-09-13T08:42:18.869Z,3.80
2022-09-13T08:45:23.110Z,4.62
2022-09-13T08:48:34.687Z,6.20
2022-09-13T08:51:42.413Z,3.10
2022-09-13T08:54:44.935Z,4.10
2022-09-13T08:58:03.953Z,5.20
2022-09-13T09:01:14.095Z,4.00
2022-09-13T09:04:28.941Z,6.28
2022-09-13T09:07:35.217Z,5.62
2022-09-13T09:10:42.267Z,4.37
2022-09-13T09:13:54.910Z,7.57
2022-09-13T09:17:00.204Z,3.65
2022-09-13T09:20:19.372Z,2.53
2022-09-13T09:23:26.221Z,2.80
2022-09-13T09:26:30.683Z,2.37
2022-09-13T09:29:33.459Z,3.17
2022-09-13T09:33:05.085Z,5.32
2022-09-13T09:36:39.266Z,4.12
2022-09-13T09:39:42.449Z,2.60
2022-09-13T09:42:47.378Z,4.50
2022-09-13T09:45:53.856Z,3.65
2022-09-13T09:49:31.477Z,2.42
2022-09-13T09:52:50.675Z,3.90
2022-09-13T09:56:17.263Z,2.25
2022-09-13T09:59:28.486Z,4.00
2022-09-13T10:02:31.453Z,4.43
2022-09-13T10:05:35.234Z,2.97
2022-09-13T10:08:40.671Z,3.03
2022-09-13T10:11:59.941Z,5.28
2022-09-13T10:15:11.284Z,3.67
2022-09-13T10:18:44.365Z,4.82
2022-09-13T10:21:39.057Z,4.43
2022-09-13T10:24:41.726Z,5.85
2022-09-13T10:27:50.232Z,4.60
2022-09-13T10:30:56.732Z,6.15
2022-09-13T10:34:00.667Z,7.05
2022-09-13T10:37:21.537Z,4.40
2022-09-13T10:40:30.351Z,7.65
2022-09-13T10:43:34.616Z,4.28
2022-09-13T10:46:40.151Z,5.68
2022-09-13T10:49:54.987Z,5.40
2022-09-13T10:52:59.096Z,7.18
2022-09-13T10:56:02.674Z,6.95
2022-09-13T10:59:24.342Z,3.97
2022-09-13T11:02:42.214Z,5.00
2022-09-13T11:05:56.472Z,4.90
2022-09-13T11:09:16.968Z,3.17
2022-09-13T11:12:36.398Z,3.87
2022-09-13T11:15:45.023Z,4.82
2022-09-13T11:19:18.459Z,3.83
2022-09-13T11:22:23.694Z,3.33
2022-09-13T11:26:05.710Z,6.22
2022-09-13T11:29:26.485Z,4.05
2022-09-13T11:33:16.341Z,4.10
2022-09-13T11:36:47.423Z,3.17
2022-09-13T11:40:02.876Z,3.15
2022-09-13T11:43:47.340Z,5.57
2022-09-13T11:47:02.338Z,3.45
2022-09-13T11:50:23.136Z,1.95
2022-09-13T11:53:44.888Z,3.08
2022-09-13T11:56:54.287Z,2.15
2022-09-13T12:00:02.144Z,2.95
2022-09-13T12:03:16.084Z,2.78
2022-09-13T12:06:40.059Z,3.60
2022-09-13T12:09:53.817Z,4.90
2022-09-13T12:12:58.508Z,2.78
2022-09-13T12:16:08.700Z,4.32
2022-09-13T12:19:36.512Z,1.95
2022-09-13T12:22:39.209Z,3.05
2022-09-13T12:26:15.422Z,2.00
2022-09-13T12:29:20.749Z,1.73
2022-09-13T12:32:23.814Z,2.22
2022-09-13T12:35:25.814Z,2.95
2022-09-13T12:38:38.909Z,5.05
2022-09-13T12:41:59.406Z,3.28
2022-09-13T12:45:24.226Z,1.95
2022-09-13T12:48:49.390Z,1.98
2022-09-13T12:52:08.906Z,2.55
2022-09-13T12:55:45.977Z,3.75
2022-09-13T12:59:09.768Z,3.62
2022-09-13T13:02:26.914Z,5.20
2022-09-13T13:05:40.412Z,3.33
2022-09-13T13:08:53.911Z,4.12
2022-09-13T13:11:58.452Z,3.37
2022-09-13T13:15:05.870Z,9.45
2022-09-13T13:18:48.999Z,7.30
2022-09-13T13:21:51.192Z,2.33
2022-09-13T13:24:55.402Z,2.28
2022-09-13T13:27:58.808Z,5.03
2022-09-13T13:31:01.427Z,3.72
2022-09-13T13:34:23.380Z,5.35
2022-09-13T13:37:33.382Z,2.83
2022-09-13T13:40:36.786Z,2.45
2022-09-13T13:43:39.113Z,3.28
2022-09-13T13:46:41.903Z,4.40
2022-09-13T13:50:04.121Z,2.03
2022-09-13T13:53:22.206Z,2.42
2022-09-13T13:56:48.520Z,3.90
2022-09-13T13:59:54.697Z,3.85
2022-09-13T14:03:02.994Z,1.87
2022-09-13T14:06:31.050Z,2.10
2022-09-13T14:10:10.682Z,1.77
2022-09-13T14:13:36.189Z,3.17
2022-09-13T14:17:09.891Z,2.05
2022-09-13T14:20:17.006Z,2.65
2022-09-13T14:23:19.463Z,2.20
2022-09-13T14:26:21.801Z,1.70
2022-09-13T14:29:26.181Z,5.90
2022-09-13T14:32:38.364Z,1.90
2022-09-13T14:35:41.179Z,2.35
2022-09-13T14:38:58.269Z,2.40
2022-09-13T14:42:13.466Z,2.60
2022-09-13T14:45:22.428Z,3.58
2022-09-13T14:48:32.663Z,2.17
2022-09-13T14:51:56.417Z,2.03
2022-09-13T14:55:04.264Z,2.03
2022-09-13T14:58:33.670Z,3.90
2022-09-13T15:01:36.043Z,2.12
2022-09-13T15:04:48.501Z,4.35
2022-09-13T15:07:50.883Z,2.80
2022-09-13T15:10:57.162Z,3.72
2022-09-13T15:14:28.476Z,3.80
2022-09-13T15:17:30.796Z,1.75
2022-09-13T15:20:48.913Z,3.12
2022-09-13T15:23:51.348Z,3.70
2022-09-13T15:27:16.289Z,1.70
2022-09-13T15:30:39.214Z,7.45
2022-09-13T15:33:41.288Z,1.83
2022-09-13T15:36:48.714Z,1.83
2022-09-13T15:40:22.291Z,2.10
2022-09-13T15:43:25.189Z,4.90
2022-09-13T15:46:27.675Z,3.55
2022-09-13T15:49:31.322Z,5.87
2022-09-13T15:52:33.398Z,5.85
2022-09-13T15:55:39.540Z,2.10
2022-09-13T15:58:41.681Z,3.58
2022-09-13T16:01:45.572Z,2.03
2022-09-13T16:04:48.471Z,4.50
2022-09-13T16:07:50.522Z,2.00
2022-09-13T16:10:52.947Z,5.12
2022-09-13T16:13:55.022Z,6.68
2022-09-13T16:17:06.819Z,2.83
2022-09-13T16:20:13.277Z,2.95
2022-09-13T16:23:15.626Z,3.92
2022-09-13T16:26:17.975Z,5.75
2022-09-13T16:29:20.246Z,2.12
2022-09-13T16:32:22.658Z,4.65
2022-09-13T16:35:29.239Z,2.40
2022-09-13T16:38:32.010Z,2.35
2022-09-13T16:41:34.046Z,6.07
2022-09-13T16:44:36.463Z,3.12
2022-09-13T16:47:39.131Z,3.58
2022-09-13T16:50:41.987Z,4.00
2022-09-13T16:53:44.098Z,2.28
2022-09-13T16:56:46.415Z,3.60
2022-09-13T16:59:48.589Z,3.22
2022-09-13T17:02:51.506Z,4.85
2022-09-13T17:06:00.777Z,4.53
2022-09-13T17:09:06.461Z,2.47
2022-09-13T17:12:10.671Z,4.18
2022-09-13T17:15:13.243Z,9.93
2022-09-13T17:18:15.471Z,7.07
2022-09-13T17:21:18.519Z,5.75
2022-09-13T17:24:20.639Z,4.95
2022-09-13T17:27:22.946Z,6.03
2022-09-13T17:30:25.770Z,3.05
2022-09-13T17:33:28.324Z,5.18
2022-09-13T17:36:30.424Z,3.75
2022-09-13T17:39:32.797Z,3.72
2022-09-13T17:42:35.020Z,3.65
2022-09-13T17:45:37.367Z,4.80
2022-09-13T17:48:40.059Z,4.65
2022-09-13T17:51:42.470Z,6.55
2022-09-13T17:54:46.438Z,5.95
2022-09-13T17:57:49.773Z,6.03
2022-09-13T18:00:51.847Z,4.15
2022-09-13T18:03:55.605Z,9.27
2022-09-13T18:06:57.670Z,4.82
2022-09-13T18:09:59.979Z,6.70
2022-09-13T18:13:02.061Z,6.43
2022-09-13T18:16:08.718Z,6.32
2022-09-13T18:19:11.603Z,6.55
2022-09-13T18:22:14.186Z,6.75
2022-09-13T18:25:16.980Z,7.28
2022-09-13T18:28:19.486Z,8.27
2022-09-13T18:31:22.404Z,8.05
2022-09-13T18:34:27.727Z,9.20
2022-09-13T18:37:31.211Z,11.52
2022-09-13T18:40:33.750Z,6.72
2022-09-13T18:43:37.346Z,5.62
2022-09-13T18:46:40.537Z,9.93
2022-09-13T18:49:42.729Z,8.88
2022-09-13T18:52:45.057Z,9.15
2022-09-13T18:55:47.166Z,12.52
2022-09-13T18:58:49.827Z,9.98
2022-09-13T19:01:52.059Z,8.60
2022-09-13T19:04:54.470Z,8.07
2022-09-13T19:07:57.192Z,8.90
2022-09-13T19:11:00.143Z,13.40
2022-09-13T19:14:02.868Z,10.43
2022-09-13T19:17:05.286Z,8.95
2022-09-13T19:20:08.147Z,4.20
2022-09-13T19:23:10.558Z,8.13
2022-09-13T19:26:24.932Z,8.02
2022-09-13T19:29:27.463Z,5.65
2022-09-13T19:32:29.550Z,5.68
2022-09-13T19:35:35.028Z,3.58
2022-09-13T19:38:37.489Z,3.17
2022-09-13T19:41:40.728Z,9.18
2022-09-13T19:44:42.838Z,7.10
2022-09-13T19:48:34.843Z,4.57
2022-09-13T19:51:11.724Z,6.30
2022-09-13T19:54:15.171Z,5.93
2022-09-13T19:57:17.379Z,11.73
2022-09-13T20:00:19.718Z,5.87
2022-09-13T20:03:22.066Z,5.32
2022-09-13T20:06:25.962Z,4.93
2022-09-13T20:09:28.461Z,3.72
2022-09-13T20:12:30.528Z,6.55
2022-09-13T20:15:33.420Z,8.43
2022-09-13T20:18:35.500Z,5.90
2022-09-13T20:21:37.959Z,5.47
2022-09-13T20:24:40.059Z,6.87
2022-09-13T20:27:42.399Z,8.25
2022-09-13T20:30:52.635Z,8.00
2022-09-13T20:33:56.435Z,9.32
2022-09-13T20:36:58.491Z,7.03
2022-09-13T20:40:02.230Z,7.12
2022-09-13T20:43:04.688Z,7.40
2022-09-13T20:46:09.879Z,5.43
2022-09-13T20:49:12.088Z,7.35
2022-09-13T20:52:14.455Z,10.90
2022-09-13T20:55:16.655Z,9.20
2022-09-13T20:58:21.105Z,7.00
2022-09-13T21:01:23.557Z,6.05
2022-09-13T21:04:26.185Z,6.20
2022-09-13T21:07:46.997Z,5.12
2022-09-13T21:11:03.460Z,9.75
2022-09-13T21:14:11.345Z,8.25
2022-09-13T21:17:13.786Z,5.95
2022-09-13T21:20:15.967Z,8.45
2022-09-13T21:23:18.594Z,5.30
2022-09-13T21:26:22.882Z,6.55
2022-09-13T21:29:25.267Z,4.82
2022-09-13T21:32:27.320Z,5.93
2022-09-13T21:35:29.640Z,4.45
2022-09-13T21:38:33.672Z,6.70
2022-09-13T21:41:36.585Z,5.60
2022-09-13T21:44:38.692Z,7.35
2022-09-13T21:47:41.027Z,5.12
2022-09-13T21:50:43.077Z,4.90
2022-09-13T21:53:47.375Z,6.45
2022-09-13T21:56:52.299Z,4.70
2022-09-13T21:59:54.618Z,6.28
2022-09-13T22:02:56.675Z,4.60
2022-09-13T22:05:58.986Z,8.63
2022-09-13T22:09:04.282Z,6.20
2022-09-13T22:12:06.767Z,7.57
2022-09-13T22:15:09.345Z,6.78
2022-09-13T22:18:11.676Z,6.53
2022-09-13T22:21:17.113Z,6.03
2022-09-13T22:24:22.618Z,8.45
2022-09-13T22:27:24.698Z,6.18
2022-09-13T22:30:27.082Z,7.72
2022-09-13T22:33:29.142Z,5.43
2022-09-13T22:36:31.659Z,6.07
2022-09-13T22:39:33.733Z,6.55
2022-09-13T22:42:36.042Z,10.15
2022-09-13T22:45:38.876Z,5.75
2022-09-13T22:48:41.858Z,6.15
2022-09-13T22:51:45.172Z,8.80
2022-09-13T22:54:50.741Z,5.30
2022-09-13T22:57:53.173Z,9.05
2022-09-13T23:01:03.421Z,8.48
2022-09-13T23:04:07.071Z,9.68
2022-09-13T23:07:09.955Z,6.60
2022-09-13T23:10:12.029Z,7.00
2022-09-13T23:13:14.338Z,5.97
2022-09-13T23:16:19.965Z,6.97
2022-09-13T23:19:23.094Z,7.05
2022-09-13T23:22:25.134Z,8.65
2022-09-13T23:25:27.589Z,9.30
2022-09-13T23:28:30.210Z,4.80
2022-09-13T23:31:35.833Z,7.37
2022-09-13T23:34:37.931Z,8.55
2022-09-13T23:37:40.258Z,6.93
2022-09-13T23:40:42.334Z,6.05
2022-09-13T23:43:45.323Z,6.78
2022-09-13T23:46:47.448Z,5.93
2022-09-13T23:49:49.845Z,8.05
2022-09-13T23:52:51.891Z,9.50
2022-09-13T23:55:54.402Z,9.68
2022-09-13T23:58:58.533Z,5.78
